sensor_id;sensor_type;location;lat;lon;timestamp;temperature;humidity
34698;DHT22;61391;50.922;6.928;2022-09-09T00:00:53;19.40;99.90
34698;DHT22;61391;50.922;6.928;2022-09-09T00:03:27;19.60;99.90
34698;DHT22;61391;50.922;6.928;2022-09-09T00:06:03;19.50;99.90
34698;DHT22;61391;50.922;6.928;2022-09-09T00:08:45;19.70;99.90
34698;DHT22;61391;50.922;6.928;2022-09-09T00:11:20;19.50;99.90
34698;DHT22;61391;50.922;6.928;2022-09-09T00:13:53;18.90;99.90
34698;DHT22;61391;50.922;6.928;2022-09-09T00:16:25;19.10;99.90
34698;DHT22;61391;50.922;6.928;2022-09-09T00:19:06;19.00;99.90
34698;DHT22;61391;50.922;6.928;2022-09-09T00:21:33;19.00;99.90
34698;DHT22;61391;50.922;6.928;2022-09-09T00:23:58;18.80;99.90
34698;DHT22;61391;50.922;6.928;2022-09-09T00:26:51;18.60;99.90
34698;DHT22;61391;50.922;6.928;2022-09-09T00:29:33;18.70;99.90
34698;DHT22;61391;50.922;6.928;2022-09-09T00:32:18;18.60;99.90
34698;DHT22;61391;50.922;6.928;2022-09-09T00:37:13;18.30;99.90
34698;DHT22;61391;50.922;6.928;2022-09-09T00:39:46;18.20;99.90
34698;DHT22;61391;50.922;6.928;2022-09-09T00:42:18;18.30;99.90
34698;DHT22;61391;50.922;6.928;2022-09-09T00:44:58;18.30;99.90
34698;DHT22;61391;50.922;6.928;2022-09-09T00:47:40;18.40;99.90
34698;DHT22;61391;50.922;6.928;2022-09-09T00:53:02;18.20;99.90
34698;DHT22;61391;50.922;6.928;2022-09-09T00:55:56;18.10;99.90
34698;DHT22;61391;50.922;6.928;2022-09-09T00:58:25;18.00;99.90
34698;DHT22;61391;50.922;6.928;2022-09-09T01:00:56;17.90;99.90
34698;DHT22;61391;50.922;6.928;2022-09-09T01:03:52;17.90;99.90
34698;DHT22;61391;50.922;6.928;2022-09-09T01:06:34;17.80;99.90
34698;DHT22;61391;50.922;6.928;2022-09-09T01:09:23;17.80;99.90
34698;DHT22;61391;50.922;6.928;2022-09-09T01:17:08;17.80;99.90
34698;DHT22;61391;50.922;6.928;2022-09-09T01:19:41;17.90;99.90
34698;DHT22;61391;50.922;6.928;2022-09-09T01:27:19;17.90;99.90
34698;DHT22;61391;50.922;6.928;2022-09-09T01:29:46;18.00;99.90
34698;DHT22;61391;50.922;6.928;2022-09-09T01:35:10;18.00;99.90
34698;DHT22;61391;50.922;6.928;2022-09-09T01:37:36;18.30;99.90
34698;DHT22;61391;50.922;6.928;2022-09-09T01:40:03;18.30;99.90
34698;DHT22;61391;50.922;6.928;2022-09-09T01:42:28;18.10;99.90
34698;DHT22;61391;50.922;6.928;2022-09-09T01:44:54;18.40;99.90
34698;DHT22;61391;50.922;6.928;2022-09-09T01:47:20;18.40;99.90
34698;DHT22;61391;50.922;6.928;2022-09-09T01:49:46;18.30;99.90
34698;DHT22;61391;50.922;6.928;2022-09-09T01:52:11;18.20;99.90
34698;DHT22;61391;50.922;6.928;2022-09-09T01:54:37;18.00;99.90
34698;DHT22;61391;50.922;6.928;2022-09-09T01:57:31;18.00;99.90
34698;DHT22;61391;50.922;6.928;2022-09-09T02:00:09;18.00;99.90
34698;DHT22;61391;50.922;6.928;2022-09-09T02:03:09;18.00;99.90
34698;DHT22;61391;50.922;6.928;2022-09-09T02:05:40;18.10;99.90
34698;DHT22;61391;50.922;6.928;2022-09-09T02:08:14;18.10;99.90
34698;DHT22;61391;50.922;6.928;2022-09-09T02:11:10;18.00;99.90
34698;DHT22;61391;50.922;6.928;2022-09-09T02:13:38;17.90;99.90
34698;DHT22;61391;50.922;6.928;2022-09-09T02:16:07;17.70;99.90
34698;DHT22;61391;50.922;6.928;2022-09-09T02:21:34;17.80;99.90
34698;DHT22;61391;50.922;6.928;2022-09-09T02:24:05;17.70;99.90
34698;DHT22;61391;50.922;6.928;2022-09-09T02:26:34;17.80;99.90
34698;DHT22;61391;50.922;6.928;2022-09-09T02:29:05;17.70;99.90
34698;DHT22;61391;50.922;6.928;2022-09-09T02:31:33;17.50;99.90
34698;DHT22;61391;50.922;6.928;2022-09-09T02:34:01;17.80;99.90
34698;DHT22;61391;50.922;6.928;2022-09-09T02:36:31;17.70;99.90
34698;DHT22;61391;50.922;6.928;2022-09-09T02:38:59;17.50;99.90
34698;DHT22;61391;50.922;6.928;2022-09-09T02:41:31;17.50;99.90
34698;DHT22;61391;50.922;6.928;2022-09-09T02:43:57;17.50;99.90
34698;DHT22;61391;50.922;6.928;2022-09-09T02:46:46;17.50;99.90
34698;DHT22;61391;50.922;6.928;2022-09-09T02:49:28;17.70;99.90
34698;DHT22;61391;50.922;6.928;2022-09-09T02:52:05;17.70;99.90
34698;DHT22;61391;50.922;6.928;2022-09-09T02:54:34;17.60;99.90
34698;DHT22;61391;50.922;6.928;2022-09-09T02:57:10;17.60;99.90
34698;DHT22;61391;50.922;6.928;2022-09-09T02:59:37;17.90;99.90
34698;DHT22;61391;50.922;6.928;2022-09-09T03:02:03;17.80;99.90
34698;DHT22;61391;50.922;6.928;2022-09-09T03:04:29;17.90;99.90
34698;DHT22;61391;50.922;6.928;2022-09-09T03:06:57;17.70;99.90
34698;DHT22;61391;50.922;6.928;2022-09-09T03:09:22;17.80;99.90
34698;DHT22;61391;50.922;6.928;2022-09-09T03:11:48;17.90;99.90
34698;DHT22;61391;50.922;6.928;2022-09-09T03:14:15;17.90;99.90
34698;DHT22;61391;50.922;6.928;2022-09-09T03:16:41;17.90;99.90
34698;DHT22;61391;50.922;6.928;2022-09-09T03:19:08;17.90;99.90
34698;DHT22;61391;50.922;6.928;2022-09-09T03:21:34;17.70;99.90
34698;DHT22;61391;50.922;6.928;2022-09-09T03:24:00;17.70;99.90
34698;DHT22;61391;50.922;6.928;2022-09-09T03:26:29;17.70;99.90
34698;DHT22;61391;50.922;6.928;2022-09-09T03:28:55;17.60;99.90
34698;DHT22;61391;50.922;6.928;2022-09-09T03:31:21;17.70;99.90
34698;DHT22;61391;50.922;6.928;2022-09-09T03:33:47;17.50;99.90
34698;DHT22;61391;50.922;6.928;2022-09-09T03:36:13;17.60;99.90
34698;DHT22;61391;50.922;6.928;2022-09-09T03:38:39;17.60;99.90
34698;DHT22;61391;50.922;6.928;2022-09-09T03:41:05;17.60;99.90
34698;DHT22;61391;50.922;6.928;2022-09-09T03:43:31;17.70;99.90
34698;DHT22;61391;50.922;6.928;2022-09-09T03:45:56;17.70;99.90
34698;DHT22;61391;50.922;6.928;2022-09-09T03:48:22;17.70;99.90
34698;DHT22;61391;50.922;6.928;2022-09-09T03:50:50;17.60;99.90
34698;DHT22;61391;50.922;6.928;2022-09-09T03:53:17;17.60;99.90
34698;DHT22;61391;50.922;6.928;2022-09-09T03:55:49;17.60;99.90
34698;DHT22;61391;50.922;6.928;2022-09-09T03:58:16;17.80;99.90
34698;DHT22;61391;50.922;6.928;2022-09-09T04:00:52;17.70;99.90
34698;DHT22;61391;50.922;6.928;2022-09-09T04:03:18;17.60;99.90
34698;DHT22;61391;50.922;6.928;2022-09-09T04:05:44;17.50;99.90
34698;DHT22;61391;50.922;6.928;2022-09-09T04:08:09;17.60;99.90
34698;DHT22;61391;50.922;6.928;2022-09-09T04:10:35;17.70;99.90
34698;DHT22;61391;50.922;6.928;2022-09-09T04:13:04;17.80;99.90
34698;DHT22;61391;50.922;6.928;2022-09-09T04:15:30;17.60;99.90
34698;DHT22;61391;50.922;6.928;2022-09-09T04:17:56;17.70;99.90
34698;DHT22;61391;50.922;6.928;2022-09-09T04:20:22;17.80;99.90
34698;DHT22;61391;50.922;6.928;2022-09-09T04:22:49;17.80;99.90
34698;DHT22;61391;50.922;6.928;2022-09-09T04:25:14;17.70;99.90
34698;DHT22;61391;50.922;6.928;2022-09-09T04:27:40;17.80;99.90
34698;DHT22;61391;50.922;6.928;2022-09-09T04:30:06;17.90;99.90
34698;DHT22;61391;50.922;6.928;2022-09-09T04:32:35;18.30;99.90
34698;DHT22;61391;50.922;6.928;2022-09-09T04:35:02;18.60;99.90
34698;DHT22;61391;50.922;6.928;2022-09-09T04:37:28;18.30;99.90
34698;DHT22;61391;50.922;6.928;2022-09-09T04:39:54;18.20;99.90
34698;DHT22;61391;50.922;6.928;2022-09-09T04:42:19;18.20;99.90
34698;DHT22;61391;50.922;6.928;2022-09-09T04:44:45;17.90;99.90
34698;DHT22;61391;50.922;6.928;2022-09-09T04:47:11;17.90;99.90
34698;DHT22;61391;50.922;6.928;2022-09-09T04:49:36;17.80;99.90
34698;DHT22;61391;50.922;6.928;2022-09-09T04:52:03;17.60;99.90
34698;DHT22;61391;50.922;6.928;2022-09-09T04:54:29;17.70;99.90
34698;DHT22;61391;50.922;6.928;2022-09-09T04:56:55;17.90;99.90
34698;DHT22;61391;50.922;6.928;2022-09-09T04:59:20;17.90;99.90
34698;DHT22;61391;50.922;6.928;2022-09-09T05:01:47;17.90;99.90
34698;DHT22;61391;50.922;6.928;2022-09-09T05:04:13;17.90;99.90
34698;DHT22;61391;50.922;6.928;2022-09-09T05:06:40;17.80;99.90
34698;DHT22;61391;50.922;6.928;2022-09-09T05:09:07;17.90;99.90
34698;DHT22;61391;50.922;6.928;2022-09-09T05:11:33;17.80;99.90
34698;DHT22;61391;50.922;6.928;2022-09-09T05:14:02;17.70;99.90
34698;DHT22;61391;50.922;6.928;2022-09-09T05:16:28;17.90;99.90
34698;DHT22;61391;50.922;6.928;2022-09-09T05:18:53;17.80;99.90
34698;DHT22;61391;50.922;6.928;2022-09-09T05:21:21;17.70;99.90
34698;DHT22;61391;50.922;6.928;2022-09-09T05:23:47;17.90;99.90
34698;DHT22;61391;50.922;6.928;2022-09-09T05:26:15;17.80;99.90
34698;DHT22;61391;50.922;6.928;2022-09-09T05:28:41;17.80;99.90
34698;DHT22;61391;50.922;6.928;2022-09-09T05:31:08;17.80;99.90
34698;DHT22;61391;50.922;6.928;2022-09-09T05:33:35;17.80;99.90
34698;DHT22;61391;50.922;6.928;2022-09-09T05:36:03;17.70;99.90
34698;DHT22;61391;50.922;6.928;2022-09-09T05:38:30;17.80;99.90
34698;DHT22;61391;50.922;6.928;2022-09-09T05:40:56;17.90;99.90
34698;DHT22;61391;50.922;6.928;2022-09-09T05:43:23;17.90;99.90
34698;DHT22;61391;50.922;6.928;2022-09-09T05:46:02;17.90;99.90
34698;DHT22;61391;50.922;6.928;2022-09-09T05:48:30;17.80;99.90
34698;DHT22;61391;50.922;6.928;2022-09-09T05:50:56;17.70;99.90
34698;DHT22;61391;50.922;6.928;2022-09-09T05:53:21;17.80;99.90
34698;DHT22;61391;50.922;6.928;2022-09-09T05:55:47;17.70;99.90
34698;DHT22;61391;50.922;6.928;2022-09-09T05:58:13;17.90;99.90
34698;DHT22;61391;50.922;6.928;2022-09-09T06:00:40;17.90;99.90
34698;DHT22;61391;50.922;6.928;2022-09-09T06:03:06;17.90;99.90
34698;DHT22;61391;50.922;6.928;2022-09-09T06:05:31;17.90;99.90
34698;DHT22;61391;50.922;6.928;2022-09-09T06:07:59;17.80;99.90
34698;DHT22;61391;50.922;6.928;2022-09-09T06:10:24;17.80;99.90
34698;DHT22;61391;50.922;6.928;2022-09-09T06:12:52;17.80;99.90
34698;DHT22;61391;50.922;6.928;2022-09-09T06:15:18;17.80;99.90
34698;DHT22;61391;50.922;6.928;2022-09-09T06:17:44;18.00;99.90
34698;DHT22;61391;50.922;6.928;2022-09-09T06:20:11;18.10;99.90
34698;DHT22;61391;50.922;6.928;2022-09-09T06:22:39;18.10;99.90
34698;DHT22;61391;50.922;6.928;2022-09-09T06:25:07;18.20;99.90
34698;DHT22;61391;50.922;6.928;2022-09-09T06:27:33;18.30;99.90
34698;DHT22;61391;50.922;6.928;2022-09-09T06:29:58;18.30;99.90
34698;DHT22;61391;50.922;6.928;2022-09-09T06:32:24;18.30;99.90
34698;DHT22;61391;50.922;6.928;2022-09-09T06:34:51;18.20;99.90
34698;DHT22;61391;50.922;6.928;2022-09-09T06:37:17;18.10;99.90
34698;DHT22;61391;50.922;6.928;2022-09-09T06:39:43;18.30;99.90
34698;DHT22;61391;50.922;6.928;2022-09-09T06:42:08;18.50;99.90
34698;DHT22;61391;50.922;6.928;2022-09-09T06:44:34;18.70;99.90
34698;DHT22;61391;50.922;6.928;2022-09-09T06:47:00;18.70;99.90
34698;DHT22;61391;50.922;6.928;2022-09-09T06:49:25;18.60;99.90
34698;DHT22;61391;50.922;6.928;2022-09-09T06:51:51;18.70;99.90
34698;DHT22;61391;50.922;6.928;2022-09-09T06:54:17;19.10;99.90
34698;DHT22;61391;50.922;6.928;2022-09-09T06:56:43;19.40;99.90
34698;DHT22;61391;50.922;6.928;2022-09-09T06:59:11;19.40;99.90
34698;DHT22;61391;50.922;6.928;2022-09-09T07:01:42;20.10;99.90
34698;DHT22;61391;50.922;6.928;2022-09-09T07:04:12;20.60;99.90
34698;DHT22;61391;50.922;6.928;2022-09-09T07:06:41;20.60;99.90
34698;DHT22;61391;50.922;6.928;2022-09-09T07:09:10;21.30;99.90
34698;DHT22;61391;50.922;6.928;2022-09-09T07:11:41;21.70;99.90
34698;DHT22;61391;50.922;6.928;2022-09-09T07:14:08;22.00;99.90
34698;DHT22;61391;50.922;6.928;2022-09-09T07:16:34;22.80;99.90
34698;DHT22;61391;50.922;6.928;2022-09-09T07:19:02;23.30;99.90
34698;DHT22;61391;50.922;6.928;2022-09-09T07:21:29;23.20;99.90
34698;DHT22;61391;50.922;6.928;2022-09-09T07:23:56;23.20;99.90
34698;DHT22;61391;50.922;6.928;2022-09-09T07:26:28;23.40;99.90
34698;DHT22;61391;50.922;6.928;2022-09-09T07:28:54;24.50;99.90
34698;DHT22;61391;50.922;6.928;2022-09-09T07:31:23;23.90;99.90
34698;DHT22;61391;50.922;6.928;2022-09-09T07:33:50;23.80;99.90
34698;DHT22;61391;50.922;6.928;2022-09-09T07:38:48;24.30;99.90
34698;DHT22;61391;50.922;6.928;2022-09-09T07:43:46;25.90;99.90
34698;DHT22;61391;50.922;6.928;2022-09-09T07:46:14;24.20;99.90
34698;DHT22;61391;50.922;6.928;2022-09-09T07:48:45;23.00;99.90
34698;DHT22;61391;50.922;6.928;2022-09-09T07:51:14;22.50;99.90
34698;DHT22;61391;50.922;6.928;2022-09-09T07:53:42;21.80;99.90
34698;DHT22;61391;50.922;6.928;2022-09-09T07:56:10;21.20;99.90
34698;DHT22;61391;50.922;6.928;2022-09-09T07:58:37;21.30;99.90
34698;DHT22;61391;50.922;6.928;2022-09-09T08:01:09;21.20;99.90
34698;DHT22;61391;50.922;6.928;2022-09-09T08:03:35;20.70;99.90
34698;DHT22;61391;50.922;6.928;2022-09-09T08:06:03;20.60;99.90
34698;DHT22;61391;50.922;6.928;2022-09-09T08:08:29;20.50;99.90
34698;DHT22;61391;50.922;6.928;2022-09-09T08:11:02;20.30;99.90
34698;DHT22;61391;50.922;6.928;2022-09-09T08:13:28;20.10;99.90
34698;DHT22;61391;50.922;6.928;2022-09-09T08:15:54;20.00;99.90
34698;DHT22;61391;50.922;6.928;2022-09-09T08:18:19;20.00;99.90
34698;DHT22;61391;50.922;6.928;2022-09-09T08:20:45;20.10;99.90
34698;DHT22;61391;50.922;6.928;2022-09-09T08:23:10;20.10;99.90
34698;DHT22;61391;50.922;6.928;2022-09-09T08:25:36;20.00;99.90
34698;DHT22;61391;50.922;6.928;2022-09-09T08:28:02;20.00;99.90
34698;DHT22;61391;50.922;6.928;2022-09-09T08:30:28;20.10;99.90
34698;DHT22;61391;50.922;6.928;2022-09-09T08:32:55;20.20;99.90
34698;DHT22;61391;50.922;6.928;2022-09-09T08:35:20;20.20;99.90
34698;DHT22;61391;50.922;6.928;2022-09-09T08:37:46;20.60;99.90
34698;DHT22;61391;50.922;6.928;2022-09-09T08:40:20;21.40;99.90
34698;DHT22;61391;50.922;6.928;2022-09-09T08:42:52;21.30;99.90
34698;DHT22;61391;50.922;6.928;2022-09-09T08:45:35;20.90;99.90
34698;DHT22;61391;50.922;6.928;2022-09-09T08:50:51;20.50;99.90
34698;DHT22;61391;50.922;6.928;2022-09-09T08:53:23;20.50;99.90
34698;DHT22;61391;50.922;6.928;2022-09-09T08:55:51;20.30;99.90
34698;DHT22;61391;50.922;6.928;2022-09-09T08:58:19;20.40;99.90
34698;DHT22;61391;50.922;6.928;2022-09-09T09:01:01;20.70;99.90
34698;DHT22;61391;50.922;6.928;2022-09-09T09:11:39;21.90;99.90
34698;DHT22;61391;50.922;6.928;2022-09-09T09:14:13;21.90;99.90
34698;DHT22;61391;50.922;6.928;2022-09-09T09:16:48;21.40;99.90
34698;DHT22;61391;50.922;6.928;2022-09-09T09:19:16;21.10;99.90
34698;DHT22;61391;50.922;6.928;2022-09-09T09:22:06;21.20;99.90
34698;DHT22;61391;50.922;6.928;2022-09-09T09:24:56;21.10;99.90
34698;DHT22;61391;50.922;6.928;2022-09-09T09:27:32;20.80;99.90
34698;DHT22;61391;50.922;6.928;2022-09-09T09:32:39;20.50;99.90
34698;DHT22;61391;50.922;6.928;2022-09-09T09:35:12;20.40;99.90
34698;DHT22;61391;50.922;6.928;2022-09-09T09:37:40;20.70;99.90
34698;DHT22;61391;50.922;6.928;2022-09-09T09:40:11;21.00;99.90
34698;DHT22;61391;50.922;6.928;2022-09-09T09:42:47;21.50;99.90
34698;DHT22;61391;50.922;6.928;2022-09-09T09:45:43;21.40;99.90
34698;DHT22;61391;50.922;6.928;2022-09-09T09:48:12;21.00;99.90
34698;DHT22;61391;50.922;6.928;2022-09-09T09:51:07;20.80;99.90
34698;DHT22;61391;50.922;6.928;2022-09-09T09:53:35;20.80;99.90
34698;DHT22;61391;50.922;6.928;2022-09-09T09:56:10;20.60;99.90
34698;DHT22;61391;50.922;6.928;2022-09-09T10:01:26;20.90;99.90
34698;DHT22;61391;50.922;6.928;2022-09-09T10:04:17;21.80;99.90
34698;DHT22;61391;50.922;6.928;2022-09-09T10:06:44;21.70;99.90
34698;DHT22;61391;50.922;6.928;2022-09-09T10:09:30;21.40;99.90
34698;DHT22;61391;50.922;6.928;2022-09-09T10:12:15;21.20;99.90
34698;DHT22;61391;50.922;6.928;2022-09-09T10:15:12;21.50;99.90
34698;DHT22;61391;50.922;6.928;2022-09-09T10:18:03;21.50;99.90
34698;DHT22;61391;50.922;6.928;2022-09-09T10:20:33;21.60;99.90
34698;DHT22;61391;50.922;6.928;2022-09-09T10:26:19;21.10;99.90
34698;DHT22;61391;50.922;6.928;2022-09-09T10:32:33;20.60;99.90
34698;DHT22;61391;50.922;6.928;2022-09-09T10:43:51;20.90;99.90
34698;DHT22;61391;50.922;6.928;2022-09-09T10:59:50;21.90;99.90
34698;DHT22;61391;50.922;6.928;2022-09-09T11:02:26;21.90;99.90
34698;DHT22;61391;50.922;6.928;2022-09-09T11:07:40;22.30;99.90
34698;DHT22;61391;50.922;6.928;2022-09-09T11:10:21;22.50;99.90
34698;DHT22;61391;50.922;6.928;2022-09-09T11:12:50;22.70;99.90
34698;DHT22;61391;50.922;6.928;2022-09-09T11:15:24;22.90;99.90
34698;DHT22;61391;50.922;6.928;2022-09-09T11:17:56;22.40;99.90
34698;DHT22;61391;50.922;6.928;2022-09-09T11:20:23;22.40;99.90
34698;DHT22;61391;50.922;6.928;2022-09-09T11:23:15;22.20;99.90
34698;DHT22;61391;50.922;6.928;2022-09-09T11:25:48;21.80;99.90
34698;DHT22;61391;50.922;6.928;2022-09-09T11:33:59;21.20;99.90
34698;DHT22;61391;50.922;6.928;2022-09-09T11:39:42;21.30;99.90
34698;DHT22;61391;50.922;6.928;2022-09-09T11:42:23;21.30;99.90
34698;DHT22;61391;50.922;6.928;2022-09-09T11:44:50;21.20;99.90
34698;DHT22;61391;50.922;6.928;2022-09-09T11:47:30;21.10;99.90
34698;DHT22;61391;50.922;6.928;2022-09-09T11:52:43;21.50;99.90
34698;DHT22;61391;50.922;6.928;2022-09-09T11:55:30;21.80;99.90
34698;DHT22;61391;50.922;6.928;2022-09-09T12:00:37;21.50;99.90
34698;DHT22;61391;50.922;6.928;2022-09-09T12:05:58;21.50;99.90
34698;DHT22;61391;50.922;6.928;2022-09-09T12:08:27;21.60;99.90
34698;DHT22;61391;50.922;6.928;2022-09-09T12:10:56;21.50;99.90
34698;DHT22;61391;50.922;6.928;2022-09-09T12:13:24;21.20;99.90
34698;DHT22;61391;50.922;6.928;2022-09-09T12:15:54;21.20;99.90
34698;DHT22;61391;50.922;6.928;2022-09-09T12:24:09;21.20;99.90
34698;DHT22;61391;50.922;6.928;2022-09-09T12:29:56;21.40;99.90
34698;DHT22;61391;50.922;6.928;2022-09-09T12:32:26;21.50;99.90
34698;DHT22;61391;50.922;6.928;2022-09-09T12:34:54;21.50;99.90
34698;DHT22;61391;50.922;6.928;2022-09-09T12:37:38;21.80;99.90
34698;DHT22;61391;50.922;6.928;2022-09-09T12:40:29;22.10;99.90
34698;DHT22;61391;50.922;6.928;2022-09-09T12:42:54;21.70;99.90
34698;DHT22;61391;50.922;6.928;2022-09-09T12:45:25;21.60;99.90
34698;DHT22;61391;50.922;6.928;2022-09-09T12:48:07;21.60;99.90
34698;DHT22;61391;50.922;6.928;2022-09-09T12:50:36;21.70;99.90
34698;DHT22;61391;50.922;6.928;2022-09-09T12:53:07;21.60;99.90
34698;DHT22;61391;50.922;6.928;2022-09-09T12:55:36;21.80;99.90
34698;DHT22;61391;50.922;6.928;2022-09-09T12:58:04;22.00;99.90
34698;DHT22;61391;50.922;6.928;2022-09-09T13:00:32;22.30;99.90
34698;DHT22;61391;50.922;6.928;2022-09-09T13:03:00;22.80;99.90
34698;DHT22;61391;50.922;6.928;2022-09-09T13:05:36;22.80;99.90
34698;DHT22;61391;50.922;6.928;2022-09-09T13:10:31;22.80;99.90
34698;DHT22;61391;50.922;6.928;2022-09-09T13:12:57;22.80;99.90
34698;DHT22;61391;50.922;6.928;2022-09-09T13:15:24;22.30;99.90
34698;DHT22;61391;50.922;6.928;2022-09-09T13:17:58;22.50;99.90
34698;DHT22;61391;50.922;6.928;2022-09-09T13:20:27;22.40;99.90
34698;DHT22;61391;50.922;6.928;2022-09-09T13:22:54;22.50;99.90
34698;DHT22;61391;50.922;6.928;2022-09-09T13:25:28;22.40;99.90
34698;DHT22;61391;50.922;6.928;2022-09-09T13:27:58;22.30;99.90
34698;DHT22;61391;50.922;6.928;2022-09-09T13:30:30;22.50;99.90
34698;DHT22;61391;50.922;6.928;2022-09-09T13:33:06;22.60;99.90
34698;DHT22;61391;50.922;6.928;2022-09-09T13:35:56;22.40;99.90
34698;DHT22;61391;50.922;6.928;2022-09-09T13:38:23;22.10;99.90
34698;DHT22;61391;50.922;6.928;2022-09-09T13:41:04;22.00;99.90
34698;DHT22;61391;50.922;6.928;2022-09-09T13:43:37;22.00;99.90
34698;DHT22;61391;50.922;6.928;2022-09-09T13:46:25;21.90;99.90
34698;DHT22;61391;50.922;6.928;2022-09-09T13:49:16;22.10;99.90
34698;DHT22;61391;50.922;6.928;2022-09-09T13:51:45;22.40;99.90
34698;DHT22;61391;50.922;6.928;2022-09-09T13:54:14;22.30;99.90
34698;DHT22;61391;50.922;6.928;2022-09-09T13:56:41;22.10;99.90
34698;DHT22;61391;50.922;6.928;2022-09-09T13:59:16;22.00;99.90
34698;DHT22;61391;50.922;6.928;2022-09-09T14:01:43;22.10;99.90
34698;DHT22;61391;50.922;6.928;2022-09-09T14:04:12;21.90;99.90
34698;DHT22;61391;50.922;6.928;2022-09-09T14:06:39;21.70;99.90
34698;DHT22;61391;50.922;6.928;2022-09-09T14:09:15;21.70;99.90
34698;DHT22;61391;50.922;6.928;2022-09-09T14:11:41;21.60;99.90
34698;DHT22;61391;50.922;6.928;2022-09-09T14:14:08;21.70;99.90
34698;DHT22;61391;50.922;6.928;2022-09-09T14:16:33;21.40;99.90
34698;DHT22;61391;50.922;6.928;2022-09-09T14:18:59;21.40;99.90
34698;DHT22;61391;50.922;6.928;2022-09-09T14:21:32;21.40;99.90
34698;DHT22;61391;50.922;6.928;2022-09-09T14:24:00;21.50;99.90
34698;DHT22;61391;50.922;6.928;2022-09-09T14:26:25;21.60;99.90
34698;DHT22;61391;50.922;6.928;2022-09-09T14:29:00;21.70;99.90
34698;DHT22;61391;50.922;6.928;2022-09-09T14:31:26;21.70;99.90
34698;DHT22;61391;50.922;6.928;2022-09-09T14:33:53;21.70;99.90
34698;DHT22;61391;50.922;6.928;2022-09-09T14:36:19;21.60;99.90
34698;DHT22;61391;50.922;6.928;2022-09-09T14:38:44;21.50;99.90
34698;DHT22;61391;50.922;6.928;2022-09-09T14:41:15;21.10;99.90
34698;DHT22;61391;50.922;6.928;2022-09-09T14:43:45;20.50;99.90
34698;DHT22;61391;50.922;6.928;2022-09-09T14:46:13;19.90;99.90
34698;DHT22;61391;50.922;6.928;2022-09-09T14:48:40;19.70;99.90
34698;DHT22;61391;50.922;6.928;2022-09-09T14:51:14;19.60;99.90
34698;DHT22;61391;50.922;6.928;2022-09-09T14:53:41;19.70;99.90
34698;DHT22;61391;50.922;6.928;2022-09-09T14:56:15;19.20;99.90
34698;DHT22;61391;50.922;6.928;2022-09-09T14:58:41;19.10;99.90
34698;DHT22;61391;50.922;6.928;2022-09-09T15:01:12;19.30;99.90
34698;DHT22;61391;50.922;6.928;2022-09-09T15:03:40;19.40;99.90
34698;DHT22;61391;50.922;6.928;2022-09-09T15:06:08;19.60;99.90
34698;DHT22;61391;50.922;6.928;2022-09-09T15:08:37;19.70;99.90
34698;DHT22;61391;50.922;6.928;2022-09-09T15:11:04;19.50;99.90
34698;DHT22;61391;50.922;6.928;2022-09-09T15:13:30;19.40;99.90
34698;DHT22;61391;50.922;6.928;2022-09-09T15:16:06;19.60;99.90
34698;DHT22;61391;50.922;6.928;2022-09-09T15:18:33;19.60;99.90
34698;DHT22;61391;50.922;6.928;2022-09-09T15:21:05;19.60;99.90
34698;DHT22;61391;50.922;6.928;2022-09-09T15:23:35;19.50;99.90
34698;DHT22;61391;50.922;6.928;2022-09-09T15:26:01;19.60;99.90
34698;DHT22;61391;50.922;6.928;2022-09-09T15:28:27;19.80;99.90
34698;DHT22;61391;50.922;6.928;2022-09-09T15:30:54;20.00;99.90
34698;DHT22;61391;50.922;6.928;2022-09-09T15:33:20;20.20;99.90
34698;DHT22;61391;50.922;6.928;2022-09-09T15:35:46;20.10;99.90
34698;DHT22;61391;50.922;6.928;2022-09-09T15:38:12;19.80;99.90
34698;DHT22;61391;50.922;6.928;2022-09-09T15:40:40;19.80;99.90
34698;DHT22;61391;50.922;6.928;2022-09-09T15:43:07;19.70;99.90
34698;DHT22;61391;50.922;6.928;2022-09-09T15:45:34;19.50;99.90
34698;DHT22;61391;50.922;6.928;2022-09-09T15:48:01;19.30;99.90
34698;DHT22;61391;50.922;6.928;2022-09-09T15:50:27;19.40;99.90
34698;DHT22;61391;50.922;6.928;2022-09-09T15:52:53;19.30;99.90
34698;DHT22;61391;50.922;6.928;2022-09-09T15:55:19;19.00;99.90
34698;DHT22;61391;50.922;6.928;2022-09-09T15:57:49;18.70;99.90
34698;DHT22;61391;50.922;6.928;2022-09-09T16:00:15;18.60;99.90
34698;DHT22;61391;50.922;6.928;2022-09-09T16:02:41;18.70;99.90
34698;DHT22;61391;50.922;6.928;2022-09-09T16:05:06;18.20;99.90
34698;DHT22;61391;50.922;6.928;2022-09-09T16:07:32;17.90;99.90
34698;DHT22;61391;50.922;6.928;2022-09-09T16:10:00;17.80;99.90
34698;DHT22;61391;50.922;6.928;2022-09-09T16:12:25;17.50;99.90
34698;DHT22;61391;50.922;6.928;2022-09-09T16:14:51;17.60;99.90
34698;DHT22;61391;50.922;6.928;2022-09-09T16:17:17;17.40;99.90
34698;DHT22;61391;50.922;6.928;2022-09-09T16:19:44;17.40;99.90
34698;DHT22;61391;50.922;6.928;2022-09-09T16:22:11;17.50;99.90
34698;DHT22;61391;50.922;6.928;2022-09-09T16:24:36;17.50;99.90
34698;DHT22;61391;50.922;6.928;2022-09-09T16:27:02;17.50;99.90
34698;DHT22;61391;50.922;6.928;2022-09-09T16:29:28;17.70;99.90
34698;DHT22;61391;50.922;6.928;2022-09-09T16:31:54;17.70;99.90
34698;DHT22;61391;50.922;6.928;2022-09-09T16:34:20;17.80;99.90
34698;DHT22;61391;50.922;6.928;2022-09-09T16:36:47;17.80;99.90
34698;DHT22;61391;50.922;6.928;2022-09-09T16:39:16;17.80;99.90
34698;DHT22;61391;50.922;6.928;2022-09-09T16:41:43;18.00;99.90
34698;DHT22;61391;50.922;6.928;2022-09-09T16:44:11;18.10;99.90
34698;DHT22;61391;50.922;6.928;2022-09-09T16:46:39;18.30;99.90
34698;DHT22;61391;50.922;6.928;2022-09-09T16:49:07;18.30;99.90
34698;DHT22;61391;50.922;6.928;2022-09-09T16:51:44;18.30;99.90
34698;DHT22;61391;50.922;6.928;2022-09-09T16:54:12;18.50;99.90
34698;DHT22;61391;50.922;6.928;2022-09-09T16:56:43;18.30;99.90
34698;DHT22;61391;50.922;6.928;2022-09-09T16:59:11;18.30;99.90
34698;DHT22;61391;50.922;6.928;2022-09-09T17:01:40;18.30;99.90
34698;DHT22;61391;50.922;6.928;2022-09-09T17:04:09;18.30;99.90
34698;DHT22;61391;50.922;6.928;2022-09-09T17:06:36;18.60;99.90
34698;DHT22;61391;50.922;6.928;2022-09-09T17:09:09;18.70;99.90
34698;DHT22;61391;50.922;6.928;2022-09-09T17:11:35;18.80;99.90
34698;DHT22;61391;50.922;6.928;2022-09-09T17:14:02;18.60;99.90
34698;DHT22;61391;50.922;6.928;2022-09-09T17:16:31;18.50;99.90
34698;DHT22;61391;50.922;6.928;2022-09-09T17:18:57;18.30;99.90
34698;DHT22;61391;50.922;6.928;2022-09-09T17:21:26;18.30;99.90
34698;DHT22;61391;50.922;6.928;2022-09-09T17:23:53;18.30;99.90
34698;DHT22;61391;50.922;6.928;2022-09-09T17:26:21;18.30;99.90
34698;DHT22;61391;50.922;6.928;2022-09-09T17:28:47;18.30;99.90
34698;DHT22;61391;50.922;6.928;2022-09-09T17:31:15;18.50;99.90